sensor_id;sensor_type;location;lat;lon;timestamp;pressure;altitude;pressure_sealevel;temperature
75811;BMP280;64449;50.016;19.954;2023-12-22T00:02:10;95594.23;;;6.78
75811;BMP280;64449;50.016;19.954;2023-12-22T00:04:35;95591.80;;;6.78
75811;BMP280;64449;50.016;19.954;2023-12-22T00:07:00;95601.35;;;6.78
75811;BMP280;64449;50.016;19.954;2023-12-22T00:09:26;95599.99;;;6.79
75811;BMP280;64449;50.016;19.954;2023-12-22T00:11:51;95602.03;;;6.78
75811;BMP280;64449;50.016;19.954;2023-12-22T00:14:16;95599.73;;;6.79
75811;BMP280;64449;50.016;19.954;2023-12-22T00:16:42;95596.23;;;6.78
75811;BMP280;64449;50.016;19.954;2023-12-22T00:19:07;95605.15;;;6.77
75811;BMP280;64449;50.016;19.954;2023-12-22T00:21:33;95607.97;;;6.76
75811;BMP280;64449;50.016;19.954;2023-12-22T00:23:58;95613.81;;;6.76
75811;BMP280;64449;50.016;19.954;2023-12-22T00:26:23;95620.58;;;6.75
75811;BMP280;64449;50.016;19.954;2023-12-22T00:28:49;95612.34;;;6.74
75811;BMP280;64449;50.016;19.954;2023-12-22T00:31:14;95609.00;;;6.73
75811;BMP280;64449;50.016;19.954;2023-12-22T00:33:40;95607.91;;;6.72
75811;BMP280;64449;50.016;19.954;2023-12-22T00:36:05;95612.05;;;6.71
75811;BMP280;64449;50.016;19.954;2023-12-22T00:38:31;95620.02;;;6.70
75811;BMP280;64449;50.016;19.954;2023-12-22T00:40:57;95625.35;;;6.68
75811;BMP280;64449;50.016;19.954;2023-12-22T00:43:22;95620.08;;;6.67
75811;BMP280;64449;50.016;19.954;2023-12-22T00:45:48;95628.48;;;6.67
75811;BMP280;64449;50.016;19.954;2023-12-22T00:48:13;95622.73;;;6.66
75811;BMP280;64449;50.016;19.954;2023-12-22T00:50:38;95627.87;;;6.65
75811;BMP280;64449;50.016;19.954;2023-12-22T00:53:04;95629.73;;;6.65
75811;BMP280;64449;50.016;19.954;2023-12-22T00:55:29;95635.89;;;6.63
75811;BMP280;64449;50.016;19.954;2023-12-22T00:57:55;95646.73;;;6.63
75811;BMP280;64449;50.016;19.954;2023-12-22T01:00:20;95666.68;;;6.63
75811;BMP280;64449;50.016;19.954;2023-12-22T01:02:45;95674.15;;;6.62
75811;BMP280;64449;50.016;19.954;2023-12-22T01:05:11;95671.35;;;6.63
75811;BMP280;64449;50.016;19.954;2023-12-22T01:07:36;95664.79;;;6.62
75811;BMP280;64449;50.016;19.954;2023-12-22T01:10:02;95662.95;;;6.61
75811;BMP280;64449;50.016;19.954;2023-12-22T01:12:29;95669.23;;;6.60
75811;BMP280;64449;50.016;19.954;2023-12-22T01:14:56;95673.27;;;6.59
75811;BMP280;64449;50.016;19.954;2023-12-22T01:17:21;95673.08;;;6.57
75811;BMP280;64449;50.016;19.954;2023-12-22T01:19:47;95675.89;;;6.56
75811;BMP280;64449;50.016;19.954;2023-12-22T01:22:13;95677.42;;;6.55
75811;BMP280;64449;50.016;19.954;2023-12-22T01:24:38;95676.88;;;6.55
75811;BMP280;64449;50.016;19.954;2023-12-22T01:27:06;95678.16;;;6.56
75811;BMP280;64449;50.016;19.954;2023-12-22T01:29:32;95682.58;;;6.56
75811;BMP280;64449;50.016;19.954;2023-12-22T01:31:57;95681.88;;;6.56
75811;BMP280;64449;50.016;19.954;2023-12-22T01:34:23;95696.06;;;6.56
75811;BMP280;64449;50.016;19.954;2023-12-22T01:36:48;95693.20;;;6.54
75811;BMP280;64449;50.016;19.954;2023-12-22T01:39:15;95700.44;;;6.53
75811;BMP280;64449;50.016;19.954;2023-12-22T01:41:41;95691.30;;;6.51
75811;BMP280;64449;50.016;19.954;2023-12-22T01:44:07;95690.74;;;6.48
75811;BMP280;64449;50.016;19.954;2023-12-22T01:46:32;95694.34;;;6.44
75811;BMP280;64449;50.016;19.954;2023-12-22T01:49:00;95703.21;;;6.41
75811;BMP280;64449;50.016;19.954;2023-12-22T01:51:29;95699.81;;;6.37
75811;BMP280;64449;50.016;19.954;2023-12-22T01:53:57;95704.52;;;6.34
75811;BMP280;64449;50.016;19.954;2023-12-22T01:56:23;95705.42;;;6.31
75811;BMP280;64449;50.016;19.954;2023-12-22T01:58:51;95704.55;;;6.29
75811;BMP280;64449;50.016;19.954;2023-12-22T02:01:19;95702.73;;;6.25
75811;BMP280;64449;50.016;19.954;2023-12-22T02:03:48;95706.36;;;6.23
75811;BMP280;64449;50.016;19.954;2023-12-22T02:06:17;95709.74;;;6.21
75811;BMP280;64449;50.016;19.954;2023-12-22T02:08:46;95713.47;;;6.19
75811;BMP280;64449;50.016;19.954;2023-12-22T02:11:12;95712.67;;;6.17
75811;BMP280;64449;50.016;19.954;2023-12-22T02:13:37;95710.98;;;6.16
75811;BMP280;64449;50.016;19.954;2023-12-22T02:16:20;95710.39;;;6.14
75811;BMP280;64449;50.016;19.954;2023-12-22T02:18:51;95705.84;;;6.12
75811;BMP280;64449;50.016;19.954;2023-12-22T02:21:17;95705.96;;;6.11
75811;BMP280;64449;50.016;19.954;2023-12-22T02:23:43;95704.31;;;6.11
75811;BMP280;64449;50.016;19.954;2023-12-22T02:26:36;95707.71;;;6.10
75811;BMP280;64449;50.016;19.954;2023-12-22T02:29:03;95711.60;;;6.11
75811;BMP280;64449;50.016;19.954;2023-12-22T02:31:42;95709.20;;;6.12
75811;BMP280;64449;50.016;19.954;2023-12-22T02:34:14;95708.05;;;6.12
75811;BMP280;64449;50.016;19.954;2023-12-22T02:36:43;95715.00;;;6.13
75811;BMP280;64449;50.016;19.954;2023-12-22T02:39:09;95718.31;;;6.13
75811;BMP280;64449;50.016;19.954;2023-12-22T02:41:36;95721.13;;;6.12
75811;BMP280;64449;50.016;19.954;2023-12-22T02:44:01;95711.05;;;6.11
75811;BMP280;64449;50.016;19.954;2023-12-22T02:46:27;95710.68;;;6.10
75811;BMP280;64449;50.016;19.954;2023-12-22T02:48:53;95699.33;;;6.08
75811;BMP280;64449;50.016;19.954;2023-12-22T02:51:18;95703.42;;;6.07
75811;BMP280;64449;50.016;19.954;2023-12-22T02:53:43;95702.45;;;6.05
75811;BMP280;64449;50.016;19.954;2023-12-22T02:56:09;95690.85;;;6.02
75811;BMP280;64449;50.016;19.954;2023-12-22T02:58:34;95699.21;;;6.01
75811;BMP280;64449;50.016;19.954;2023-12-22T03:01:00;95697.89;;;5.99
75811;BMP280;64449;50.016;19.954;2023-12-22T03:03:25;95704.40;;;5.99
75811;BMP280;64449;50.016;19.954;2023-12-22T03:05:50;95698.53;;;5.97
75811;BMP280;64449;50.016;19.954;2023-12-22T03:08:16;95703.54;;;5.97
75811;BMP280;64449;50.016;19.954;2023-12-22T03:10:41;95705.17;;;5.96
75811;BMP280;64449;50.016;19.954;2023-12-22T03:13:06;95708.00;;;5.96
75811;BMP280;64449;50.016;19.954;2023-12-22T03:15:32;95700.61;;;5.95
75811;BMP280;64449;50.016;19.954;2023-12-22T03:17:57;95695.40;;;5.91
75811;BMP280;64449;50.016;19.954;2023-12-22T03:20:22;95693.34;;;5.90
75811;BMP280;64449;50.016;19.954;2023-12-22T03:22:48;95691.29;;;5.90
75811;BMP280;64449;50.016;19.954;2023-12-22T03:25:13;95689.80;;;5.90
75811;BMP280;64449;50.016;19.954;2023-12-22T03:27:38;95695.41;;;5.89
75811;BMP280;64449;50.016;19.954;2023-12-22T03:30:04;95703.48;;;5.89
75811;BMP280;64449;50.016;19.954;2023-12-22T03:32:30;95707.81;;;5.87
75811;BMP280;64449;50.016;19.954;2023-12-22T03:34:55;95714.55;;;5.87
75811;BMP280;64449;50.016;19.954;2023-12-22T03:37:20;95727.31;;;5.86
75811;BMP280;64449;50.016;19.954;2023-12-22T03:39:46;95725.52;;;5.87
75811;BMP280;64449;50.016;19.954;2023-12-22T03:42:11;95721.46;;;5.87
75811;BMP280;64449;50.016;19.954;2023-12-22T03:44:36;95721.28;;;5.87
75811;BMP280;64449;50.016;19.954;2023-12-22T03:47:02;95718.95;;;5.87
75811;BMP280;64449;50.016;19.954;2023-12-22T03:49:27;95716.87;;;5.89
75811;BMP280;64449;50.016;19.954;2023-12-22T03:51:53;95715.64;;;5.90
75811;BMP280;64449;50.016;19.954;2023-12-22T03:54:18;95717.05;;;5.90
75811;BMP280;64449;50.016;19.954;2023-12-22T03:56:44;95721.25;;;5.88
75811;BMP280;64449;50.016;19.954;2023-12-22T03:59:09;95719.63;;;5.88
75811;BMP280;64449;50.016;19.954;2023-12-22T04:01:35;95713.35;;;5.87
75811;BMP280;64449;50.016;19.954;2023-12-22T04:04:00;95720.27;;;5.87
75811;BMP280;64449;50.016;19.954;2023-12-22T04:06:25;95717.44;;;5.85
75811;BMP280;64449;50.016;19.954;2023-12-22T04:08:52;95719.77;;;5.83
75811;BMP280;64449;50.016;19.954;2023-12-22T04:11:17;95727.80;;;5.81
75811;BMP280;64449;50.016;19.954;2023-12-22T04:13:42;95728.01;;;5.79
75811;BMP280;64449;50.016;19.954;2023-12-22T04:16:08;95723.17;;;5.77
75811;BMP280;64449;50.016;19.954;2023-12-22T04:18:33;95719.96;;;5.77
75811;BMP280;64449;50.016;19.954;2023-12-22T04:20:59;95721.21;;;5.75
75811;BMP280;64449;50.016;19.954;2023-12-22T04:23:24;95717.83;;;5.74
75811;BMP280;64449;50.016;19.954;2023-12-22T04:25:50;95715.59;;;5.74
75811;BMP280;64449;50.016;19.954;2023-12-22T04:28:15;95720.80;;;5.72
75811;BMP280;64449;50.016;19.954;2023-12-22T04:30:41;95731.82;;;5.71
75811;BMP280;64449;50.016;19.954;2023-12-22T04:33:06;95729.93;;;5.71
75811;BMP280;64449;50.016;19.954;2023-12-22T04:35:32;95730.47;;;5.71
75811;BMP280;64449;50.016;19.954;2023-12-22T04:37:57;95727.39;;;5.71
75811;BMP280;64449;50.016;19.954;2023-12-22T04:40:22;95726.37;;;5.70
75811;BMP280;64449;50.016;19.954;2023-12-22T04:42:48;95735.56;;;5.69
75811;BMP280;64449;50.016;19.954;2023-12-22T04:45:14;95720.29;;;5.69
75811;BMP280;64449;50.016;19.954;2023-12-22T04:47:40;95719.54;;;5.67
75811;BMP280;64449;50.016;19.954;2023-12-22T04:50:05;95721.34;;;5.66
75811;BMP280;64449;50.016;19.954;2023-12-22T04:52:31;95735.32;;;5.64
75811;BMP280;64449;50.016;19.954;2023-12-22T04:54:56;95720.19;;;5.62
75811;BMP280;64449;50.016;19.954;2023-12-22T04:57:21;95712.30;;;5.63
75811;BMP280;64449;50.016;19.954;2023-12-22T04:59:47;95709.43;;;5.62
75811;BMP280;64449;50.016;19.954;2023-12-22T05:02:13;95707.89;;;5.62
75811;BMP280;64449;50.016;19.954;2023-12-22T05:04:38;95702.27;;;5.61
75811;BMP280;64449;50.016;19.954;2023-12-22T05:07:03;95701.42;;;5.61
75811;BMP280;64449;50.016;19.954;2023-12-22T05:09:33;95706.75;;;5.60
75811;BMP280;64449;50.016;19.954;2023-12-22T05:11:58;95708.35;;;5.61
75811;BMP280;64449;50.016;19.954;2023-12-22T05:14:24;95709.04;;;5.62
75811;BMP280;64449;50.016;19.954;2023-12-22T05:16:49;95700.23;;;5.63
75811;BMP280;64449;50.016;19.954;2023-12-22T05:19:16;95699.38;;;5.65
75811;BMP280;64449;50.016;19.954;2023-12-22T05:21:41;95705.23;;;5.68
75811;BMP280;64449;50.016;19.954;2023-12-22T05:24:07;95694.23;;;5.70
75811;BMP280;64449;50.016;19.954;2023-12-22T05:26:32;95701.34;;;5.72
75811;BMP280;64449;50.016;19.954;2023-12-22T05:28:57;95718.20;;;5.73
75811;BMP280;64449;50.016;19.954;2023-12-22T05:31:23;95742.39;;;5.72
75811;BMP280;64449;50.016;19.954;2023-12-22T05:33:48;95739.20;;;5.70
75811;BMP280;64449;50.016;19.954;2023-12-22T05:36:14;95748.65;;;5.67
75811;BMP280;64449;50.016;19.954;2023-12-22T05:38:39;95755.27;;;5.64
75811;BMP280;64449;50.016;19.954;2023-12-22T05:41:05;95783.02;;;5.63
75811;BMP280;64449;50.016;19.954;2023-12-22T05:43:33;95810.45;;;5.62
75811;BMP280;64449;50.016;19.954;2023-12-22T05:45:59;95833.34;;;5.58
75811;BMP280;64449;50.016;19.954;2023-12-22T05:48:25;95834.67;;;5.45
75811;BMP280;64449;50.016;19.954;2023-12-22T05:50:51;95841.86;;;5.29
75811;BMP280;64449;50.016;19.954;2023-12-22T05:53:16;95839.65;;;5.13
75811;BMP280;64449;50.016;19.954;2023-12-22T05:55:41;95846.15;;;4.97
75811;BMP280;64449;50.016;19.954;2023-12-22T05:58:07;95850.80;;;4.85
75811;BMP280;64449;50.016;19.954;2023-12-22T06:00:32;95869.88;;;4.73
75811;BMP280;64449;50.016;19.954;2023-12-22T06:02:58;95861.18;;;4.61
75811;BMP280;64449;50.016;19.954;2023-12-22T06:05:23;95864.96;;;4.51
75811;BMP280;64449;50.016;19.954;2023-12-22T06:07:48;95869.46;;;4.41
75811;BMP280;64449;50.016;19.954;2023-12-22T06:10:14;95874.36;;;4.33
75811;BMP280;64449;50.016;19.954;2023-12-22T06:12:39;95863.20;;;4.25
75811;BMP280;64449;50.016;19.954;2023-12-22T06:15:05;95863.54;;;4.19
75811;BMP280;64449;50.016;19.954;2023-12-22T06:17:31;95867.45;;;4.14
75811;BMP280;64449;50.016;19.954;2023-12-22T06:19:56;95866.30;;;4.08
75811;BMP280;64449;50.016;19.954;2023-12-22T06:22:22;95875.52;;;4.03
75811;BMP280;64449;50.016;19.954;2023-12-22T06:24:48;95883.17;;;3.97
75811;BMP280;64449;50.016;19.954;2023-12-22T06:27:13;95881.46;;;3.91
75811;BMP280;64449;50.016;19.954;2023-12-22T06:29:39;95890.61;;;3.87
75811;BMP280;64449;50.016;19.954;2023-12-22T06:32:04;95890.27;;;3.83
75811;BMP280;64449;50.016;19.954;2023-12-22T06:34:31;95888.85;;;3.81
75811;BMP280;64449;50.016;19.954;2023-12-22T06:36:57;95882.42;;;3.77
75811;BMP280;64449;50.016;19.954;2023-12-22T06:39:22;95880.16;;;3.75
75811;BMP280;64449;50.016;19.954;2023-12-22T06:41:48;95878.46;;;3.71
75811;BMP280;64449;50.016;19.954;2023-12-22T06:44:13;95880.56;;;3.67
75811;BMP280;64449;50.016;19.954;2023-12-22T06:46:38;95883.81;;;3.65
75811;BMP280;64449;50.016;19.954;2023-12-22T06:49:04;95890.77;;;3.59
75811;BMP280;64449;50.016;19.954;2023-12-22T06:51:31;95900.46;;;3.52
75811;BMP280;64449;50.016;19.954;2023-12-22T06:53:57;95906.48;;;3.47
75811;BMP280;64449;50.016;19.954;2023-12-22T06:56:26;95905.07;;;3.44
75811;BMP280;64449;50.016;19.954;2023-12-22T06:58:54;95907.19;;;3.41
75811;BMP280;64449;50.016;19.954;2023-12-22T07:01:23;95911.48;;;3.40
75811;BMP280;64449;50.016;19.954;2023-12-22T07:03:49;95908.98;;;3.40
75811;BMP280;64449;50.016;19.954;2023-12-22T07:06:19;95912.42;;;3.42
75811;BMP280;64449;50.016;19.954;2023-12-22T07:11:46;95920.38;;;3.46
75811;BMP280;64449;50.016;19.954;2023-12-22T07:14:12;95924.11;;;3.47
75811;BMP280;64449;50.016;19.954;2023-12-22T07:16:37;95922.94;;;3.50
75811;BMP280;64449;50.016;19.954;2023-12-22T07:19:03;95927.67;;;3.54
75811;BMP280;64449;50.016;19.954;2023-12-22T07:21:29;95919.75;;;3.55
75811;BMP280;64449;50.016;19.954;2023-12-22T07:23:55;95919.65;;;3.54
75811;BMP280;64449;50.016;19.954;2023-12-22T07:26:20;95921.88;;;3.54
75811;BMP280;64449;50.016;19.954;2023-12-22T07:28:49;95931.29;;;3.54
75811;BMP280;64449;50.016;19.954;2023-12-22T07:31:15;95937.81;;;3.54
75811;BMP280;64449;50.016;19.954;2023-12-22T07:33:41;95933.04;;;3.56
75811;BMP280;64449;50.016;19.954;2023-12-22T07:36:07;95935.94;;;3.62
75811;BMP280;64449;50.016;19.954;2023-12-22T07:38:32;95941.70;;;3.66
75811;BMP280;64449;50.016;19.954;2023-12-22T07:40:58;95950.59;;;3.69
75811;BMP280;64449;50.016;19.954;2023-12-22T07:43:24;95941.14;;;3.75
75811;BMP280;64449;50.016;19.954;2023-12-22T07:45:49;95935.60;;;3.80
75811;BMP280;64449;50.016;19.954;2023-12-22T07:48:19;95940.66;;;3.85
75811;BMP280;64449;50.016;19.954;2023-12-22T07:50:44;95942.61;;;3.88
75811;BMP280;64449;50.016;19.954;2023-12-22T07:53:10;95941.45;;;3.98
75811;BMP280;64449;50.016;19.954;2023-12-22T07:55:36;95950.95;;;4.05
75811;BMP280;64449;50.016;19.954;2023-12-22T07:58:04;95948.13;;;4.13
75811;BMP280;64449;50.016;19.954;2023-12-22T08:00:29;95948.98;;;4.16
75811;BMP280;64449;50.016;19.954;2023-12-22T08:02:55;95955.13;;;4.28
75811;BMP280;64449;50.016;19.954;2023-12-22T08:05:20;95954.66;;;4.46
75811;BMP280;64449;50.016;19.954;2023-12-22T08:07:46;95951.74;;;4.61
75811;BMP280;64449;50.016;19.954;2023-12-22T08:10:11;95952.20;;;4.72
75811;BMP280;64449;50.016;19.954;2023-12-22T08:12:37;95946.20;;;4.78
75811;BMP280;64449;50.016;19.954;2023-12-22T08:15:03;95942.98;;;4.79
75811;BMP280;64449;50.016;19.954;2023-12-22T08:17:29;95936.63;;;4.93
75811;BMP280;64449;50.016;19.954;2023-12-22T08:19:54;95932.63;;;5.05
75811;BMP280;64449;50.016;19.954;2023-12-22T08:22:19;95936.92;;;5.22
75811;BMP280;64449;50.016;19.954;2023-12-22T08:24:45;95923.71;;;5.40
75811;BMP280;64449;50.016;19.954;2023-12-22T08:27:10;95926.20;;;5.50
75811;BMP280;64449;50.016;19.954;2023-12-22T08:29:36;95931.95;;;5.68
75811;BMP280;64449;50.016;19.954;2023-12-22T08:32:01;95933.94;;;5.61
75811;BMP280;64449;50.016;19.954;2023-12-22T08:34:28;95933.27;;;5.56
75811;BMP280;64449;50.016;19.954;2023-12-22T08:36:53;95929.17;;;5.53
75811;BMP280;64449;50.016;19.954;2023-12-22T08:39:19;95929.42;;;5.51
75811;BMP280;64449;50.016;19.954;2023-12-22T08:41:45;95921.61;;;5.55
75811;BMP280;64449;50.016;19.954;2023-12-22T08:44:11;95923.14;;;5.68
75811;BMP280;64449;50.016;19.954;2023-12-22T08:46:39;95928.45;;;5.90
75811;BMP280;64449;50.016;19.954;2023-12-22T08:49:05;95935.91;;;6.06
75811;BMP280;64449;50.016;19.954;2023-12-22T08:51:31;95934.29;;;6.17
75811;BMP280;64449;50.016;19.954;2023-12-22T08:53:56;95935.27;;;6.16
75811;BMP280;64449;50.016;19.954;2023-12-22T08:56:22;95935.35;;;6.12
75811;BMP280;64449;50.016;19.954;2023-12-22T08:58:48;95930.07;;;6.02
75811;BMP280;64449;50.016;19.954;2023-12-22T09:01:18;95920.27;;;5.89
75811;BMP280;64449;50.016;19.954;2023-12-22T09:03:44;95924.98;;;5.80
75811;BMP280;64449;50.016;19.954;2023-12-22T09:06:19;95923.61;;;5.75
75811;BMP280;64449;50.016;19.954;2023-12-22T09:08:45;95928.19;;;5.70
75811;BMP280;64449;50.016;19.954;2023-12-22T09:11:15;95932.08;;;5.61
75811;BMP280;64449;50.016;19.954;2023-12-22T09:13:41;95930.39;;;5.54
75811;BMP280;64449;50.016;19.954;2023-12-22T09:16:08;95936.51;;;5.51
75811;BMP280;64449;50.016;19.954;2023-12-22T09:18:34;95942.56;;;5.47
75811;BMP280;64449;50.016;19.954;2023-12-22T09:21:01;95939.79;;;5.40
75811;BMP280;64449;50.016;19.954;2023-12-22T09:23:27;95963.36;;;5.32
75811;BMP280;64449;50.016;19.954;2023-12-22T09:25:52;95977.85;;;5.21
75811;BMP280;64449;50.016;19.954;2023-12-22T09:28:18;95976.48;;;5.08
75811;BMP280;64449;50.016;19.954;2023-12-22T09:30:43;95973.88;;;4.95
75811;BMP280;64449;50.016;19.954;2023-12-22T09:33:09;95964.01;;;4.84
75811;BMP280;64449;50.016;19.954;2023-12-22T09:35:35;95970.09;;;4.74
75811;BMP280;64449;50.016;19.954;2023-12-22T09:38:01;95961.13;;;4.69
75811;BMP280;64449;50.016;19.954;2023-12-22T09:40:27;95965.33;;;4.65
75811;BMP280;64449;50.016;19.954;2023-12-22T09:42:57;95967.32;;;4.63
75811;BMP280;64449;50.016;19.954;2023-12-22T09:45:23;95956.06;;;4.65
75811;BMP280;64449;50.016;19.954;2023-12-22T09:47:50;95944.17;;;4.68
75811;BMP280;64449;50.016;19.954;2023-12-22T09:50:20;95941.61;;;4.70
75811;BMP280;64449;50.016;19.954;2023-12-22T09:52:46;95948.86;;;4.69
75811;BMP280;64449;50.016;19.954;2023-12-22T09:55:13;95930.61;;;4.75
75811;BMP280;64449;50.016;19.954;2023-12-22T09:57:39;95933.11;;;4.81
75811;BMP280;64449;50.016;19.954;2023-12-22T10:00:09;95919.98;;;4.90
75811;BMP280;64449;50.016;19.954;2023-12-22T10:02:39;95906.02;;;4.93
75811;BMP280;64449;50.016;19.954;2023-12-22T10:05:05;95909.11;;;5.08
75811;BMP280;64449;50.016;19.954;2023-12-22T10:07:31;95907.77;;;5.27
75811;BMP280;64449;50.016;19.954;2023-12-22T10:09:59;95903.90;;;5.27
75811;BMP280;64449;50.016;19.954;2023-12-22T10:12:27;95901.26;;;5.18
75811;BMP280;64449;50.016;19.954;2023-12-22T10:14:54;95897.92;;;5.12
75811;BMP280;64449;50.016;19.954;2023-12-22T10:17:20;95915.83;;;5.07
75811;BMP280;64449;50.016;19.954;2023-12-22T10:19:45;95924.09;;;5.00
75811;BMP280;64449;50.016;19.954;2023-12-22T10:22:11;95921.28;;;5.04
75811;BMP280;64449;50.016;19.954;2023-12-22T10:24:40;95920.30;;;5.04
75811;BMP280;64449;50.016;19.954;2023-12-22T10:27:13;95916.57;;;5.05
75811;BMP280;64449;50.016;19.954;2023-12-22T10:29:39;95911.55;;;5.08
75811;BMP280;64449;50.016;19.954;2023-12-22T10:32:06;95920.80;;;5.05
75811;BMP280;64449;50.016;19.954;2023-12-22T10:34:32;95913.17;;;4.97
75811;BMP280;64449;50.016;19.954;2023-12-22T10:37:01;95914.80;;;4.93
75811;BMP280;64449;50.016;19.954;2023-12-22T10:39:28;95908.05;;;4.94
75811;BMP280;64449;50.016;19.954;2023-12-22T10:41:55;95907.50;;;4.98
75811;BMP280;64449;50.016;19.954;2023-12-22T10:44:20;95921.77;;;5.02
75811;BMP280;64449;50.016;19.954;2023-12-22T10:46:48;95913.98;;;5.09
75811;BMP280;64449;50.016;19.954;2023-12-22T10:49:14;95919.61;;;5.14
75811;BMP280;64449;50.016;19.954;2023-12-22T10:51:40;95907.52;;;5.27
75811;BMP280;64449;50.016;19.954;2023-12-22T10:54:06;95897.34;;;5.38
75811;BMP280;64449;50.016;19.954;2023-12-22T10:56:32;95896.21;;;5.45
75811;BMP280;64449;50.016;19.954;2023-12-22T10:58:57;95899.96;;;5.54
75811;BMP280;64449;50.016;19.954;2023-12-22T11:01:28;95899.74;;;5.56
75811;BMP280;64449;50.016;19.954;2023-12-22T11:03:58;95888.63;;;5.57
75811;BMP280;64449;50.016;19.954;2023-12-22T11:06:27;95890.11;;;5.58
75811;BMP280;64449;50.016;19.954;2023-12-22T11:08:53;95881.13;;;5.65
75811;BMP280;64449;50.016;19.954;2023-12-22T11:11:31;95878.23;;;5.71
75811;BMP280;64449;50.016;19.954;2023-12-22T11:13:59;95881.34;;;5.71
75811;BMP280;64449;50.016;19.954;2023-12-22T11:16:27;95879.46;;;5.70
75811;BMP280;64449;50.016;19.954;2023-12-22T11:18:54;95867.16;;;5.68
75811;BMP280;64449;50.016;19.954;2023-12-22T11:21:24;95877.83;;;5.64
75811;BMP280;64449;50.016;19.954;2023-12-22T11:23:51;95872.87;;;5.59
75811;BMP280;64449;50.016;19.954;2023-12-22T11:26:18;95864.64;;;5.57
75811;BMP280;64449;50.016;19.954;2023-12-22T11:28:51;95866.80;;;5.53
75811;BMP280;64449;50.016;19.954;2023-12-22T11:31:17;95874.01;;;5.49
75811;BMP280;64449;50.016;19.954;2023-12-22T11:33:45;95889.73;;;5.45
75811;BMP280;64449;50.016;19.954;2023-12-22T11:36:15;95893.13;;;5.38
75811;BMP280;64449;50.016;19.954;2023-12-22T11:38:41;95904.00;;;5.26
75811;BMP280;64449;50.016;19.954;2023-12-22T11:41:14;95906.77;;;5.16
75811;BMP280;64449;50.016;19.954;2023-12-22T11:43:42;95907.64;;;5.06
75811;BMP280;64449;50.016;19.954;2023-12-22T11:46:08;95909.85;;;4.94
75811;BMP280;64449;50.016;19.954;2023-12-22T11:48:34;95902.58;;;4.85
75811;BMP280;64449;50.016;19.954;2023-12-22T11:51:00;95909.49;;;4.75
75811;BMP280;64449;50.016;19.954;2023-12-22T11:53:30;95902.41;;;4.71
75811;BMP280;64449;50.016;19.954;2023-12-22T11:56:05;95902.44;;;4.67
75811;BMP280;64449;50.016;19.954;2023-12-22T11:58:37;95905.58;;;4.66
75811;BMP280;64449;50.016;19.954;2023-12-22T12:01:08;95888.98;;;4.65
75811;BMP280;64449;50.016;19.954;2023-12-22T12:03:57;95892.13;;;4.64
75811;BMP280;64449;50.016;19.954;2023-12-22T12:08:56;95892.70;;;4.60
75811;BMP280;64449;50.016;19.954;2023-12-22T12:11:23;95888.63;;;4.56
75811;BMP280;64449;50.016;19.954;2023-12-22T12:13:49;95890.02;;;4.52
75811;BMP280;64449;50.016;19.954;2023-12-22T12:16:19;95887.59;;;4.47
75811;BMP280;64449;50.016;19.954;2023-12-22T12:18:49;95912.44;;;4.43
75811;BMP280;64449;50.016;19.954;2023-12-22T12:21:15;95913.15;;;4.41
75811;BMP280;64449;50.016;19.954;2023-12-22T12:23:41;95900.37;;;4.38
75811;BMP280;64449;50.016;19.954;2023-12-22T12:26:08;95909.21;;;4.43
75811;BMP280;64449;50.016;19.954;2023-12-22T12:28:35;95911.20;;;4.48
75811;BMP280;64449;50.016;19.954;2023-12-22T12:31:05;95901.01;;;4.49
75811;BMP280;64449;50.016;19.954;2023-12-22T12:33:31;95892.38;;;4.48
75811;BMP280;64449;50.016;19.954;2023-12-22T12:35:58;95897.44;;;4.46
75811;BMP280;64449;50.016;19.954;2023-12-22T12:39:16;95895.74;;;4.44
75811;BMP280;64449;50.016;19.954;2023-12-22T12:41:41;95880.59;;;4.40
75811;BMP280;64449;50.016;19.954;2023-12-22T12:44:10;95881.61;;;4.39
75811;BMP280;64449;50.016;19.954;2023-12-22T12:46:37;95889.15;;;4.40
75811;BMP280;64449;50.016;19.954;2023-12-22T12:49:06;95885.38;;;4.37
75811;BMP280;64449;50.016;19.954;2023-12-22T12:51:42;95881.97;;;4.33
75811;BMP280;64449;50.016;19.954;2023-12-22T12:54:08;95880.89;;;4.31
75811;BMP280;64449;50.016;19.954;2023-12-22T12:56:39;95891.56;;;4.30
75811;BMP280;64449;50.016;19.954;2023-12-22T12:59:09;95888.65;;;4.27
75811;BMP280;64449;50.016;19.954;2023-12-22T13:01:52;95869.45;;;4.25
75811;BMP280;64449;50.016;19.954;2023-12-22T13:04:18;95868.15;;;4.23
75811;BMP280;64449;50.016;19.954;2023-12-22T13:06:44;95857.29;;;4.25
75811;BMP280;64449;50.016;19.954;2023-12-22T13:09:09;95851.08;;;4.26
75811;BMP280;64449;50.016;19.954;2023-12-22T13:11:35;95853.31;;;4.27
75811;BMP280;64449;50.016;19.954;2023-12-22T13:14:01;95854.17;;;4.26
75811;BMP280;64449;50.016;19.954;2023-12-22T13:16:27;95853.44;;;4.24
75811;BMP280;64449;50.016;19.954;2023-12-22T13:18:56;95855.49;;;4.23
75811;BMP280;64449;50.016;19.954;2023-12-22T13:21:23;95847.16;;;4.24
75811;BMP280;64449;50.016;19.954;2023-12-22T13:26:33;95822.36;;;4.30
75811;BMP280;64449;50.016;19.954;2023-12-22T13:28:58;95827.15;;;4.32
75811;BMP280;64449;50.016;19.954;2023-12-22T13:31:25;95835.05;;;4.33
75811;BMP280;64449;50.016;19.954;2023-12-22T13:33:51;95835.69;;;4.34
75811;BMP280;64449;50.016;19.954;2023-12-22T13:36:16;95861.61;;;4.36
75811;BMP280;64449;50.016;19.954;2023-12-22T13:38:46;95887.17;;;4.33
75811;BMP280;64449;50.016;19.954;2023-12-22T13:41:12;95884.50;;;4.26
75811;BMP280;64449;50.016;19.954;2023-12-22T13:43:38;95904.36;;;4.18
75811;BMP280;64449;50.016;19.954;2023-12-22T13:46:03;95898.05;;;4.10
75811;BMP280;64449;50.016;19.954;2023-12-22T13:48:30;95883.46;;;4.01
75811;BMP280;64449;50.016;19.954;2023-12-22T13:50:56;95891.29;;;3.94
75811;BMP280;64449;50.016;19.954;2023-12-22T13:53:23;95889.11;;;3.88
75811;BMP280;64449;50.016;19.954;2023-12-22T13:55:58;95887.41;;;3.82
75811;BMP280;64449;50.016;19.954;2023-12-22T13:58:24;95889.98;;;3.77
75811;BMP280;64449;50.016;19.954;2023-12-22T14:00:50;95890.05;;;3.72
75811;BMP280;64449;50.016;19.954;2023-12-22T14:03:16;95896.16;;;3.68
75811;BMP280;64449;50.016;19.954;2023-12-22T14:05:42;95896.02;;;3.67
75811;BMP280;64449;50.016;19.954;2023-12-22T14:08:08;95899.24;;;3.67
75811;BMP280;64449;50.016;19.954;2023-12-22T14:10:34;95891.40;;;3.68
75811;BMP280;64449;50.016;19.954;2023-12-22T14:12:59;95892.58;;;3.70
75811;BMP280;64449;50.016;19.954;2023-12-22T14:15:25;95892.14;;;3.71